createdAt,value
2019-01-02T00:00:22.804Z,0.00
2019-01-02T00:01:22.797Z,0.00
2019-01-02T00:02:22.785Z,0.00
2019-01-02T00:03:22.781Z,0.00
2019-01-02T00:04:22.970Z,0.00
2019-01-02T00:05:22.823Z,0.00
2019-01-02T00:06:22.762Z,0.00
2019-01-02T00:07:22.766Z,0.00
2019-01-02T00:08:22.756Z,0.00
2019-01-02T00:09:22.744Z,0.00
2019-01-02T00:10:22.738Z,0.00
2019-01-02T00:11:22.751Z,0.00
2019-01-02T00:12:22.723Z,0.00
2019-01-02T00:13:22.777Z,0.00
2019-01-02T00:14:22.728Z,0.00
2019-01-02T00:15:22.717Z,0.00
2019-01-02T00:16:22.702Z,0.00
2019-01-02T00:17:22.695Z,0.00
2019-01-02T00:18:22.896Z,0.00
2019-01-02T00:19:22.706Z,0.00
2019-01-02T00:20:22.688Z,0.00
2019-01-02T00:21:22.666Z,0.00
2019-01-02T00:22:22.680Z,0.00
2019-01-02T00:23:22.662Z,0.00
2019-01-02T00:24:22.657Z,0.00
2019-01-02T00:25:22.638Z,0.00
2019-01-02T00:26:22.654Z,0.00
2019-01-02T00:27:22.634Z,0.00
2019-01-02T00:28:23.282Z,0.00
2019-01-02T00:29:22.635Z,0.00
2019-01-02T00:30:22.615Z,0.00
2019-01-02T00:31:22.627Z,0.00
2019-01-02T00:32:23.922Z,0.00
2019-01-02T00:33:22.806Z,0.00
2019-01-02T00:34:22.584Z,0.00
2019-01-02T00:35:22.585Z,0.00
2019-01-02T00:36:22.585Z,0.00
2019-01-02T00:37:22.570Z,0.00
2019-01-02T00:38:22.569Z,0.00
2019-01-02T00:39:22.771Z,0.00
2019-01-02T00:40:22.568Z,0.00
2019-01-02T00:41:22.559Z,0.00
2019-01-02T00:42:22.536Z,0.00
2019-01-02T00:43:22.737Z,0.00
2019-01-02T00:44:22.526Z,0.00
2019-01-02T00:45:23.409Z,0.00
2019-01-02T00:46:22.520Z,0.00
2019-01-02T00:47:22.515Z,0.00
2019-01-02T00:48:22.511Z,0.00
2019-01-02T00:49:22.506Z,0.00
2019-01-02T00:50:22.695Z,0.00
2019-01-02T00:51:22.509Z,0.00
2019-01-02T00:52:22.691Z,0.00
2019-01-02T00:53:22.498Z,0.00
2019-01-02T00:54:22.463Z,0.00
2019-01-02T00:55:22.476Z,0.00
2019-01-02T00:56:22.470Z,0.00
2019-01-02T00:57:22.656Z,0.00
2019-01-02T00:58:22.455Z,0.00
2019-01-02T00:59:22.460Z,0.00
2019-01-02T01:00:22.450Z,0.00
2019-01-02T01:01:22.424Z,0.00
2019-01-02T01:02:22.447Z,0.00
2019-01-02T01:03:22.433Z,0.00
2019-01-02T01:04:22.404Z,0.00
2019-01-02T01:05:22.598Z,0.00
2019-01-02T01:06:22.400Z,0.00
2019-01-02T01:07:22.405Z,0.00
2019-01-02T01:08:22.584Z,0.00
2019-01-02T01:09:22.384Z,0.00
2019-01-02T01:10:22.364Z,0.00
2019-01-02T01:11:22.360Z,0.00
2019-01-02T01:12:22.357Z,0.00
2019-01-02T01:13:22.561Z,0.00
2019-01-02T01:14:22.570Z,0.00
2019-01-02T01:15:22.341Z,0.00
2019-01-02T01:16:22.328Z,0.00
2019-01-02T01:17:22.324Z,0.00
2019-01-02T01:18:22.320Z,0.00
2019-01-02T01:19:22.515Z,0.00
2019-01-02T01:20:22.301Z,0.00
2019-01-02T01:21:22.302Z,0.00
2019-01-02T01:22:22.301Z,0.00
2019-01-02T01:23:22.288Z,0.00
2019-01-02T01:24:22.285Z,0.00
2019-01-02T01:25:22.481Z,0.00
2019-01-02T01:26:22.270Z,0.00
2019-01-02T01:27:22.269Z,0.00
2019-01-02T01:28:22.466Z,0.00
2019-01-02T01:29:22.248Z,0.00
2019-01-02T01:30:22.260Z,0.00
2019-01-02T01:31:22.445Z,0.00
2019-01-02T01:32:22.438Z,0.00
2019-01-02T01:33:22.227Z,0.00
2019-01-02T01:34:22.237Z,0.00
2019-01-02T01:35:22.228Z,0.00
2019-01-02T01:36:22.204Z,0.00
2019-01-02T01:37:22.219Z,0.00
2019-01-02T01:38:22.400Z,0.00
2019-01-02T01:39:22.395Z,0.00
2019-01-02T01:40:22.401Z,0.00
2019-01-02T01:41:22.177Z,0.00
2019-01-02T01:42:22.170Z,0.00
2019-01-02T01:43:22.190Z,0.00
2019-01-02T01:44:22.171Z,0.00
2019-01-02T01:45:22.161Z,0.00
2019-01-02T01:46:22.145Z,0.00
2019-01-02T01:47:22.160Z,0.00
2019-01-02T01:48:22.149Z,0.00
2019-01-02T01:49:22.131Z,0.00
2019-01-02T01:50:22.126Z,0.00
2019-01-02T01:51:22.120Z,0.00
2019-01-02T01:52:22.111Z,0.00
2019-01-02T01:53:22.113Z,0.00
2019-01-02T01:54:22.103Z,0.00
2019-01-02T01:55:22.103Z,0.00
2019-01-02T01:56:22.089Z,0.00
2019-01-02T01:57:22.086Z,0.00
2019-01-02T01:58:22.074Z,0.00
2019-01-02T01:59:22.074Z,0.00
2019-01-02T02:00:22.091Z,0.00
2019-01-02T02:01:22.054Z,0.00
2019-01-02T02:02:22.062Z,0.00
2019-01-02T02:03:22.053Z,0.00
2019-01-02T02:04:22.047Z,0.00
2019-01-02T02:05:22.034Z,0.00
2019-01-02T02:06:22.029Z,0.00
2019-01-02T02:07:22.030Z,0.00
2019-01-02T02:08:22.015Z,0.00
2019-01-02T02:09:22.028Z,0.00
2019-01-02T02:10:22.012Z,0.00
2019-01-02T02:11:22.001Z,0.00
2019-01-02T02:12:21.998Z,0.00
2019-01-02T02:13:21.996Z,0.00
2019-01-02T02:14:21.971Z,0.00
2019-01-02T02:15:21.965Z,0.00
2019-01-02T02:16:21.971Z,0.00
2019-01-02T02:17:21.960Z,0.00
2019-01-02T02:18:21.951Z,0.00
2019-01-02T02:19:21.951Z,0.00
2019-01-02T02:20:21.946Z,0.00
2019-01-02T02:21:21.949Z,0.00
2019-01-02T02:22:21.922Z,0.00
2019-01-02T02:23:21.919Z,0.00
2019-01-02T02:24:21.924Z,0.00
2019-01-02T02:25:21.916Z,0.00
2019-01-02T02:26:21.904Z,0.00
2019-01-02T02:27:21.889Z,0.00
2019-01-02T02:28:21.906Z,0.00
2019-01-02T02:29:21.886Z,0.00
2019-01-02T02:30:21.882Z,0.00
2019-01-02T02:31:21.871Z,0.00
2019-01-02T02:32:21.890Z,0.00
2019-01-02T02:33:21.867Z,0.00
2019-01-02T02:34:21.875Z,0.00
2019-01-02T02:35:21.840Z,0.00
2019-01-02T02:36:21.841Z,0.00
2019-01-02T02:37:21.834Z,0.00
2019-01-02T02:38:21.830Z,0.00
2019-01-02T02:39:21.822Z,0.00
2019-01-02T02:40:21.813Z,0.00
2019-01-02T02:41:21.820Z,0.00
2019-01-02T02:42:21.812Z,0.00
2019-01-02T02:43:21.794Z,0.00
2019-01-02T02:44:21.785Z,0.00
2019-01-02T02:45:21.785Z,0.00
2019-01-02T02:46:21.781Z,0.00
2019-01-02T02:47:21.770Z,0.00
2019-01-02T02:48:21.779Z,0.00
2019-01-02T02:49:22.966Z,0.00
2019-01-02T02:50:21.755Z,0.00
2019-01-02T02:51:21.747Z,0.00
2019-01-02T02:52:21.752Z,0.00
2019-01-02T02:53:21.732Z,0.00
2019-01-02T02:54:21.722Z,0.00
2019-01-02T02:55:21.727Z,0.00
2019-01-02T02:56:21.712Z,0.00
2019-01-02T02:57:21.709Z,0.00
2019-01-02T02:58:21.709Z,0.00
2019-01-02T02:59:21.703Z,0.00
2019-01-02T03:00:21.695Z,0.00
2019-01-02T03:01:21.723Z,0.00
2019-01-02T03:02:21.689Z,0.00
2019-01-02T03:03:21.682Z,0.00
2019-01-02T03:04:21.668Z,0.00
2019-01-02T03:05:21.664Z,0.00
2019-01-02T03:06:22.249Z,0.00
2019-01-02T03:07:21.645Z,0.00
2019-01-02T03:08:21.647Z,0.00
2019-01-02T03:09:21.633Z,0.00
2019-01-02T03:10:21.638Z,0.00
2019-01-02T03:11:21.621Z,0.00
2019-01-02T03:12:21.633Z,0.00
2019-01-02T03:13:21.609Z,0.00
2019-01-02T03:14:21.605Z,0.00
2019-01-02T03:15:21.614Z,0.00
2019-01-02T03:16:21.596Z,0.00
2019-01-02T03:17:21.592Z,0.00
2019-01-02T03:18:21.578Z,0.00
2019-01-02T03:19:21.573Z,0.00
2019-01-02T03:20:21.575Z,0.00
2019-01-02T03:21:21.576Z,0.00
2019-01-02T03:22:21.567Z,0.00
2019-01-02T03:23:21.555Z,0.00
2019-01-02T03:24:21.544Z,0.00
2019-01-02T03:25:21.533Z,0.00
2019-01-02T03:26:21.532Z,0.00
2019-01-02T03:27:21.524Z,0.00
2019-01-02T03:28:21.522Z,0.00
2019-01-02T03:29:21.518Z,0.00
2019-01-02T03:30:21.518Z,0.00
2019-01-02T03:31:21.515Z,0.00
2019-01-02T03:32:21.508Z,0.00
2019-01-02T03:33:21.495Z,0.00
2019-01-02T03:34:21.491Z,0.00
2019-01-02T03:35:21.479Z,0.00
2019-01-02T03:36:21.482Z,0.00
2019-01-02T03:37:21.463Z,0.00
2019-01-02T03:38:21.468Z,0.00
2019-01-02T03:39:21.470Z,0.00
2019-01-02T03:40:21.452Z,0.00
2019-01-02T03:41:21.451Z,0.00
2019-01-02T03:42:21.436Z,0.00
2019-01-02T03:43:21.438Z,0.00
2019-01-02T03:44:21.419Z,0.00
2019-01-02T03:45:21.417Z,0.00
2019-01-02T03:46:21.426Z,0.00
2019-01-02T03:47:21.417Z,0.00
2019-01-02T03:48:21.398Z,0.00
2019-01-02T03:49:21.399Z,0.00
2019-01-02T03:50:21.397Z,0.00
2019-01-02T03:51:21.375Z,0.00
2019-01-02T03:52:21.401Z,0.00
2019-01-02T03:53:21.361Z,0.00
2019-01-02T03:54:21.375Z,0.00
2019-01-02T03:55:21.358Z,0.00
2019-01-02T03:56:21.352Z,0.00
2019-01-02T03:57:21.342Z,0.00
2019-01-02T03:58:21.362Z,0.00
2019-01-02T03:59:21.337Z,0.00
2019-01-02T04:00:21.330Z,0.00
2019-01-02T04:01:21.329Z,0.00
2019-01-02T04:02:21.332Z,0.00
2019-01-02T04:03:21.306Z,0.00
2019-01-02T04:04:21.316Z,0.00
2019-01-02T04:05:21.291Z,0.00
2019-01-02T04:06:21.296Z,0.00
2019-01-02T04:07:21.275Z,0.00
2019-01-02T04:08:21.272Z,0.00
2019-01-02T04:09:21.263Z,0.00
2019-01-02T04:10:21.263Z,0.00
2019-01-02T04:11:21.269Z,0.00
2019-01-02T04:12:21.247Z,0.00
2019-01-02T04:13:21.255Z,0.00
2019-01-02T04:14:21.235Z,0.00
2019-01-02T04:15:21.225Z,0.00
2019-01-02T04:16:21.236Z,0.00
2019-01-02T04:17:21.211Z,0.00
2019-01-02T04:18:21.223Z,0.00
2019-01-02T04:19:21.202Z,0.00
2019-01-02T04:20:21.204Z,0.00
2019-01-02T04:21:21.212Z,0.00
2019-01-02T04:22:21.180Z,0.00
2019-01-02T04:23:21.188Z,0.00
2019-01-02T04:24:21.168Z,0.00
2019-01-02T04:25:21.182Z,0.00
2019-01-02T04:26:21.165Z,0.00
2019-01-02T04:27:21.152Z,0.00
2019-01-02T04:28:21.166Z,0.00
2019-01-02T04:29:21.152Z,0.00
2019-01-02T04:30:21.138Z,0.00
2019-01-02T04:31:21.134Z,0.00
2019-01-02T04:32:21.139Z,0.00
2019-01-02T04:33:21.123Z,0.00
2019-01-02T04:34:21.102Z,0.00
2019-01-02T04:35:21.121Z,0.00
2019-01-02T04:36:21.114Z,0.00
2019-01-02T04:37:21.103Z,0.00
2019-01-02T04:38:21.087Z,0.00
2019-01-02T04:39:21.073Z,0.00
2019-01-02T04:40:21.067Z,0.00
2019-01-02T04:41:21.071Z,0.00
2019-01-02T04:42:21.055Z,0.00
2019-01-02T04:43:21.078Z,0.00
2019-01-02T04:44:21.059Z,0.00
2019-01-02T04:45:21.039Z,0.00
2019-01-02T04:46:21.035Z,0.00
2019-01-02T04:47:21.030Z,0.00
2019-01-02T04:48:21.036Z,0.00
2019-01-02T04:49:21.009Z,0.00
2019-01-02T04:50:21.007Z,0.00
2019-01-02T04:51:20.996Z,0.00
2019-01-02T04:52:21.007Z,0.00
2019-01-02T04:53:21.002Z,0.00
2019-01-02T04:54:20.982Z,0.00
2019-01-02T04:55:20.983Z,0.00
2019-01-02T04:56:20.986Z,0.00
2019-01-02T04:57:20.978Z,0.00
2019-01-02T04:58:20.974Z,0.00
2019-01-02T04:59:20.976Z,0.00
2019-01-02T05:00:20.963Z,0.00
2019-01-02T05:01:20.949Z,0.00
2019-01-02T05:02:20.956Z,0.00
2019-01-02T05:03:20.938Z,0.00
2019-01-02T05:04:21.121Z,0.00
2019-01-02T05:05:20.920Z,0.00
2019-01-02T05:06:20.917Z,0.00
2019-01-02T05:07:20.903Z,0.00
2019-01-02T05:08:20.904Z,0.00
2019-01-02T05:09:20.907Z,0.00
2019-01-02T05:10:20.897Z,0.00
2019-01-02T05:11:20.890Z,0.00
2019-01-02T05:12:20.902Z,0.00
2019-01-02T05:13:20.871Z,0.00
2019-01-02T05:14:20.858Z,0.00
2019-01-02T05:15:20.878Z,0.00
2019-01-02T05:16:20.850Z,0.00
2019-01-02T05:17:20.843Z,0.00
2019-01-02T05:18:20.841Z,0.00
2019-01-02T05:19:20.827Z,0.00
2019-01-02T05:20:20.829Z,0.00
2019-01-02T05:21:20.811Z,0.00
2019-01-02T05:22:20.818Z,0.00
2019-01-02T05:23:20.809Z,0.00
2019-01-02T05:24:20.796Z,0.00
2019-01-02T05:25:20.999Z,0.00
2019-01-02T05:26:20.791Z,0.00
2019-01-02T05:27:20.783Z,0.00
2019-01-02T05:28:20.800Z,0.00
2019-01-02T05:29:20.781Z,0.00
2019-01-02T05:30:20.792Z,0.00
2019-01-02T05:31:20.762Z,0.00
2019-01-02T05:32:20.750Z,0.00
2019-01-02T05:33:20.746Z,0.00
2019-01-02T05:34:20.731Z,0.00
2019-01-02T05:35:20.740Z,0.00
2019-01-02T05:36:20.728Z,0.00
2019-01-02T05:37:20.726Z,0.00
2019-01-02T05:38:20.702Z,0.00
2019-01-02T05:39:20.705Z,0.00
2019-01-02T05:40:20.713Z,0.00
2019-01-02T05:41:20.685Z,0.00
2019-01-02T05:42:20.697Z,0.00
2019-01-02T05:43:20.688Z,0.00
2019-01-02T05:44:20.675Z,0.00
2019-01-02T05:45:20.681Z,0.00
2019-01-02T05:46:20.655Z,0.00
2019-01-02T05:47:20.677Z,0.00
2019-01-02T05:48:20.644Z,0.00
2019-01-02T05:49:20.637Z,0.00
2019-01-02T05:50:20.630Z,0.00
2019-01-02T05:51:20.629Z,0.00
2019-01-02T05:52:20.835Z,0.00
2019-01-02T05:53:20.625Z,0.00
2019-01-02T05:54:20.606Z,0.00
2019-01-02T05:55:20.602Z,0.00
2019-01-02T05:56:20.613Z,0.00
2019-01-02T05:57:20.597Z,0.00
2019-01-02T05:58:20.594Z,0.00
2019-01-02T05:59:20.603Z,0.00
2019-01-02T06:00:20.770Z,0.00
2019-01-02T06:01:20.578Z,0.00
2019-01-02T06:02:20.569Z,0.00
2019-01-02T06:03:20.548Z,0.00
2019-01-02T06:04:20.555Z,0.00
2019-01-02T06:05:20.536Z,0.00
2019-01-02T06:06:20.551Z,0.00
2019-01-02T06:07:20.526Z,0.00
2019-01-02T06:08:20.526Z,0.00
2019-01-02T06:09:20.526Z,0.00
2019-01-02T06:10:20.526Z,0.00
2019-01-02T06:11:20.580Z,0.00
2019-01-02T06:12:20.493Z,0.00
2019-01-02T06:13:20.525Z,0.00
2019-01-02T06:14:20.501Z,0.00
2019-01-02T06:15:20.476Z,0.00
2019-01-02T06:16:20.473Z,0.00
2019-01-02T06:17:20.467Z,0.00
2019-01-02T06:18:20.456Z,0.00
2019-01-02T06:19:20.450Z,0.00
2019-01-02T06:20:20.450Z,0.00
2019-01-02T06:21:20.445Z,0.00
2019-01-02T06:22:20.433Z,0.00
2019-01-02T06:23:20.432Z,0.00
2019-01-02T06:24:20.621Z,0.00
2019-01-02T06:25:20.415Z,0.00
2019-01-02T06:26:20.609Z,0.00
2019-01-02T06:27:20.408Z,0.00
2019-01-02T06:28:20.399Z,0.00
2019-01-02T06:29:20.403Z,0.00
2019-01-02T06:30:20.392Z,0.00
2019-01-02T06:31:20.381Z,0.00
2019-01-02T06:32:20.405Z,0.00
2019-01-02T06:33:20.371Z,0.00
2019-01-02T06:34:20.366Z,0.00
2019-01-02T06:35:20.348Z,0.00
2019-01-02T06:36:20.350Z,0.00
2019-01-02T06:37:20.345Z,0.00
2019-01-02T06:38:20.330Z,0.00
2019-01-02T06:39:20.332Z,0.00
2019-01-02T06:40:20.327Z,0.00
2019-01-02T06:41:20.321Z,0.00
2019-01-02T06:42:20.319Z,0.00
2019-01-02T06:43:20.309Z,0.00
2019-01-02T06:44:20.291Z,0.00
2019-01-02T06:45:20.297Z,0.00
2019-01-02T06:46:20.295Z,0.00
2019-01-02T06:47:20.278Z,0.00
2019-01-02T06:48:20.282Z,0.00
2019-01-02T06:49:20.283Z,0.00
2019-01-02T06:50:20.464Z,0.00
2019-01-02T06:51:20.264Z,0.00
2019-01-02T06:52:20.249Z,0.00
2019-01-02T06:53:20.249Z,0.00
2019-01-02T06:54:20.229Z,0.00
2019-01-02T06:55:20.232Z,0.00
2019-01-02T06:56:20.427Z,0.00
2019-01-02T06:57:20.211Z,0.00
2019-01-02T06:58:20.210Z,0.00
2019-01-02T06:59:20.200Z,0.00
2019-01-02T07:00:20.211Z,0.00
2019-01-02T07:01:20.408Z,0.00
2019-01-02T07:02:20.389Z,0.00
2019-01-02T07:03:20.191Z,0.00
2019-01-02T07:04:20.170Z,0.00
2019-01-02T07:05:20.383Z,0.00
2019-01-02T07:06:20.161Z,0.00
2019-01-02T07:07:20.163Z,0.00
2019-01-02T07:08:20.158Z,0.00
2019-01-02T07:09:20.150Z,0.00
2019-01-02T07:10:20.137Z,0.00
2019-01-02T07:11:20.124Z,0.00
2019-01-02T07:12:20.139Z,0.00
2019-01-02T07:13:20.127Z,0.00
2019-01-02T07:14:20.110Z,0.00
2019-01-02T07:15:20.105Z,0.00
2019-01-02T07:16:20.100Z,0.00
2019-01-02T07:17:20.099Z,0.00
2019-01-02T07:18:20.081Z,0.00
2019-01-02T07:19:20.074Z,0.00
2019-01-02T07:20:20.079Z,0.00
2019-01-02T07:21:20.084Z,0.00
2019-01-02T07:22:20.072Z,0.00
2019-01-02T07:23:20.087Z,0.00
2019-01-02T07:24:20.051Z,0.00
2019-01-02T07:25:20.051Z,0.00
2019-01-02T07:26:20.037Z,0.00
2019-01-02T07:27:20.037Z,0.00
2019-01-02T07:28:20.038Z,0.00
2019-01-02T07:29:20.016Z,0.00
2019-01-02T07:30:20.010Z,0.00
2019-01-02T07:31:20.018Z,0.00
2019-01-02T07:32:24.607Z,0.00
2019-01-02T07:33:20.007Z,0.00
2019-01-02T07:34:19.997Z,0.00
2019-01-02T07:35:19.982Z,0.00
2019-01-02T07:36:19.990Z,0.00
2019-01-02T07:37:19.997Z,0.00
2019-01-02T07:38:19.969Z,0.00
2019-01-02T07:39:19.961Z,0.00
2019-01-02T07:40:19.954Z,0.00
2019-01-02T07:41:19.956Z,0.00
2019-01-02T07:42:19.936Z,0.00
2019-01-02T07:43:19.954Z,0.00
2019-01-02T07:44:19.926Z,0.00
2019-01-02T07:45:19.936Z,0.00
2019-01-02T07:46:19.911Z,0.00
2019-01-02T07:47:19.907Z,0.00
2019-01-02T07:48:19.901Z,0.00
2019-01-02T07:49:19.928Z,0.00
2019-01-02T07:50:20.096Z,0.00
2019-01-02T07:51:19.879Z,0.00
2019-01-02T07:52:19.885Z,0.00
2019-01-02T07:53:19.881Z,0.00
2019-01-02T07:54:19.882Z,0.00
2019-01-02T07:55:19.861Z,0.00
2019-01-02T07:56:19.855Z,0.00
2019-01-02T07:57:19.844Z,0.00
2019-01-02T07:58:19.840Z,0.00
2019-01-02T07:59:19.856Z,0.00
2019-01-02T08:00:19.825Z,0.00
2019-01-02T08:01:19.819Z,0.00
2019-01-02T08:02:19.840Z,0.00
2019-01-02T08:03:19.803Z,0.00
2019-01-02T08:04:19.820Z,0.00
2019-01-02T08:05:19.796Z,0.00
2019-01-02T08:06:20.009Z,5.63
2019-01-02T08:07:20.000Z,5.63
2019-01-02T08:08:19.974Z,5.63
2019-01-02T08:09:19.977Z,5.63
2019-01-02T08:10:19.775Z,5.63
2019-01-02T08:11:19.773Z,5.63
2019-01-02T08:12:19.752Z,5.63
2019-01-02T08:13:19.761Z,5.63
2019-01-02T08:14:19.736Z,5.63
2019-01-02T08:15:19.940Z,0.00
2019-01-02T08:16:19.728Z,0.00
2019-01-02T08:17:19.936Z,0.00
2019-01-02T08:18:19.710Z,0.00
2019-01-02T08:19:19.728Z,0.00
2019-01-02T08:20:19.936Z,0.00
2019-01-02T08:21:19.900Z,0.00
2019-01-02T08:22:19.690Z,0.00
2019-01-02T08:23:19.918Z,0.00
2019-01-02T08:24:19.688Z,0.00
2019-01-02T08:25:19.666Z,0.00
2019-01-02T08:26:19.665Z,5.63
2019-01-02T08:27:19.674Z,5.63
2019-01-02T08:28:19.673Z,5.63
2019-01-02T08:29:19.676Z,5.63
2019-01-02T08:30:19.661Z,5.63
2019-01-02T08:31:19.843Z,5.63
2019-01-02T08:32:19.629Z,5.63
2019-01-02T08:33:19.828Z,5.63
2019-01-02T08:34:19.621Z,5.63
2019-01-02T08:35:19.611Z,5.63
2019-01-02T08:36:19.613Z,5.63
2019-01-02T08:37:19.600Z,11.25
2019-01-02T08:38:19.591Z,11.25
2019-01-02T08:39:19.606Z,11.25
2019-01-02T08:40:19.570Z,16.88
2019-01-02T08:41:19.576Z,16.88
2019-01-02T08:42:19.569Z,16.88
2019-01-02T08:43:19.764Z,16.88
2019-01-02T08:44:19.561Z,16.88
2019-01-02T08:45:19.552Z,11.25
2019-01-02T08:46:19.539Z,11.25
2019-01-02T08:47:19.749Z,5.63
2019-01-02T08:48:19.527Z,5.63
2019-01-02T08:49:19.525Z,5.63
2019-01-02T08:50:19.723Z,5.63
2019-01-02T08:51:19.504Z,5.63
2019-01-02T08:52:19.511Z,5.63
2019-01-02T08:53:19.694Z,5.63
2019-01-02T08:54:19.491Z,5.63
2019-01-02T08:55:19.486Z,5.63
2019-01-02T08:56:19.479Z,5.63
2019-01-02T08:57:19.473Z,5.63
2019-01-02T08:58:19.477Z,5.63
2019-01-02T08:59:19.455Z,5.63
2019-01-02T09:00:19.659Z,5.63
2019-01-02T09:01:19.449Z,5.63
2019-01-02T09:02:19.450Z,5.63
2019-01-02T09:03:19.430Z,5.63
2019-01-02T09:04:19.639Z,5.63
2019-01-02T09:05:19.421Z,5.63
2019-01-02T09:06:19.413Z,5.63
2019-01-02T09:07:19.428Z,5.63
2019-01-02T09:08:19.425Z,5.63
2019-01-02T09:09:19.391Z,5.63
2019-01-02T09:10:19.387Z,5.63
2019-01-02T09:11:19.380Z,5.63
2019-01-02T09:12:19.393Z,11.25
2019-01-02T09:13:19.376Z,11.25
2019-01-02T09:14:19.363Z,5.63
2019-01-02T09:15:19.565Z,5.63
2019-01-02T09:16:19.355Z,5.63
2019-01-02T09:17:19.352Z,5.63
2019-01-02T09:18:19.567Z,5.63
2019-01-02T09:19:19.340Z,11.25
2019-01-02T09:20:19.549Z,11.25
2019-01-02T09:21:19.322Z,11.25
2019-01-02T09:22:19.330Z,11.25
2019-01-02T09:23:19.518Z,16.88
2019-01-02T09:24:19.306Z,16.88
2019-01-02T09:25:19.309Z,16.88
2019-01-02T09:26:19.506Z,16.88
2019-01-02T09:27:19.483Z,16.88
2019-01-02T09:28:19.296Z,16.88
2019-01-02T09:29:19.273Z,16.88
2019-01-02T09:30:19.266Z,16.88
2019-01-02T09:31:19.270Z,16.88
2019-01-02T09:32:19.270Z,16.88
2019-01-02T09:33:19.265Z,16.88
2019-01-02T09:34:19.261Z,22.50
2019-01-02T09:35:19.268Z,22.50
2019-01-02T09:36:19.247Z,22.50
2019-01-02T09:37:19.426Z,22.50
2019-01-02T09:38:19.232Z,22.50
2019-01-02T09:39:19.212Z,22.50
2019-01-02T09:40:19.211Z,22.50
2019-01-02T09:41:19.206Z,22.50
2019-01-02T09:42:19.207Z,22.50
2019-01-02T09:43:24.565Z,22.50
2019-01-02T09:44:19.195Z,28.13
2019-01-02T09:45:19.393Z,28.13
2019-01-02T09:46:19.180Z,33.75
2019-01-02T09:47:19.179Z,28.13
2019-01-02T09:48:19.376Z,28.13
2019-01-02T09:49:19.160Z,33.75
2019-01-02T09:50:19.172Z,28.13
2019-01-02T09:51:19.337Z,33.75
2019-01-02T09:52:19.129Z,33.75
2019-01-02T09:53:19.129Z,33.75
2019-01-02T09:54:19.124Z,33.75
2019-01-02T09:55:19.122Z,28.13
2019-01-02T09:56:19.109Z,28.13
2019-01-02T09:57:19.106Z,28.13
2019-01-02T09:58:19.108Z,33.75
2019-01-02T09:59:19.136Z,33.75
2019-01-02T10:00:19.292Z,39.38
2019-01-02T10:01:19.085Z,45.00
2019-01-02T10:02:19.087Z,39.38
2019-01-02T10:03:19.079Z,39.38
2019-01-02T10:04:19.062Z,33.75
2019-01-02T10:05:19.067Z,33.75
2019-01-02T10:06:19.287Z,33.75
2019-01-02T10:07:19.038Z,33.75
2019-01-02T10:08:19.039Z,28.13
2019-01-02T10:09:19.053Z,28.13
2019-01-02T10:10:19.024Z,28.13
2019-01-02T10:11:19.027Z,28.13
2019-01-02T10:12:19.013Z,28.13
2019-01-02T10:13:19.006Z,28.13
2019-01-02T10:14:18.997Z,28.13
2019-01-02T10:15:18.995Z,28.13
2019-01-02T10:16:18.998Z,33.75
2019-01-02T10:17:18.990Z,33.75
2019-01-02T10:18:18.978Z,33.75
2019-01-02T10:19:18.987Z,28.13
2019-01-02T10:20:18.965Z,28.13
2019-01-02T10:21:19.160Z,28.13
2019-01-02T10:22:18.961Z,28.13
2019-01-02T10:23:18.950Z,28.13
2019-01-02T10:24:18.945Z,22.50
2019-01-02T10:25:18.949Z,28.13
2019-01-02T10:26:18.926Z,28.13
2019-01-02T10:27:19.136Z,28.13
2019-01-02T10:28:18.912Z,28.13
2019-01-02T10:29:19.124Z,33.75
2019-01-02T10:30:19.109Z,28.13
2019-01-02T10:31:18.897Z,28.13
2019-01-02T10:32:19.091Z,28.13
2019-01-02T10:33:19.094Z,28.13
2019-01-02T10:34:18.875Z,28.13
2019-01-02T10:35:18.880Z,28.13
2019-01-02T10:36:19.071Z,22.50
2019-01-02T10:37:19.074Z,22.50
2019-01-02T10:38:18.853Z,22.50
2019-01-02T10:39:18.844Z,22.50
2019-01-02T10:40:18.849Z,22.50
2019-01-02T10:41:18.840Z,22.50
2019-01-02T10:42:18.832Z,22.50
2019-01-02T10:43:18.840Z,28.13
2019-01-02T10:44:18.826Z,22.50
2019-01-02T10:45:18.821Z,22.50
2019-01-02T10:46:18.805Z,22.50
2019-01-02T10:47:18.806Z,22.50
2019-01-02T10:48:18.801Z,22.50
2019-01-02T10:49:18.794Z,28.13
2019-01-02T10:50:18.789Z,33.75
2019-01-02T10:51:18.988Z,28.13
2019-01-02T10:52:18.773Z,33.75
2019-01-02T10:53:18.778Z,28.13
2019-01-02T10:54:18.770Z,28.13
2019-01-02T10:55:18.750Z,28.13
2019-01-02T10:56:18.757Z,22.50
2019-01-02T10:57:18.736Z,28.13
2019-01-02T10:58:18.736Z,33.75
2019-01-02T10:59:18.727Z,33.75
2019-01-02T11:00:18.724Z,28.13
2019-01-02T11:01:18.934Z,33.75
2019-01-02T11:02:18.705Z,39.38
2019-01-02T11:03:18.703Z,33.75
2019-01-02T11:04:18.699Z,39.38
2019-01-02T11:05:18.689Z,28.13
2019-01-02T11:06:18.884Z,22.50
2019-01-02T11:07:18.679Z,22.50
2019-01-02T11:08:18.895Z,22.50
2019-01-02T11:09:18.694Z,22.50
2019-01-02T11:10:18.662Z,22.50
2019-01-02T11:11:18.686Z,28.13
2019-01-02T11:12:18.655Z,33.75
2019-01-02T11:13:18.640Z,33.75
2019-01-02T11:14:18.850Z,28.13
2019-01-02T11:15:18.665Z,28.13
2019-01-02T11:16:18.636Z,28.13
2019-01-02T11:17:18.619Z,28.13
2019-01-02T11:18:18.642Z,28.13
2019-01-02T11:19:18.633Z,28.13
2019-01-02T11:20:18.607Z,22.50
2019-01-02T11:21:18.601Z,22.50
2019-01-02T11:22:18.606Z,28.13
2019-01-02T11:23:18.594Z,28.13
2019-01-02T11:24:18.790Z,33.75
2019-01-02T11:25:18.613Z,28.13
2019-01-02T11:26:18.565Z,33.75
2019-01-02T11:27:18.793Z,28.13
2019-01-02T11:28:18.770Z,22.50
2019-01-02T11:29:18.554Z,22.50
2019-01-02T11:30:18.759Z,22.50
2019-01-02T11:31:18.546Z,22.50
2019-01-02T11:32:18.741Z,22.50
2019-01-02T11:33:18.529Z,22.50
2019-01-02T11:34:18.521Z,22.50
2019-01-02T11:35:18.746Z,22.50
2019-01-02T11:36:18.503Z,22.50
2019-01-02T11:37:18.707Z,22.50
2019-01-02T11:38:18.717Z,22.50
2019-01-02T11:39:18.486Z,16.88
2019-01-02T11:40:18.487Z,16.88
2019-01-02T11:41:18.482Z,16.88
2019-01-02T11:42:18.494Z,22.50
2019-01-02T11:43:18.480Z,22.50
2019-01-02T11:44:21.417Z,28.13
2019-01-02T11:45:18.457Z,28.13
2019-01-02T11:46:18.674Z,28.13
2019-01-02T11:47:18.445Z,28.13
2019-01-02T11:48:18.646Z,28.13
2019-01-02T11:49:18.638Z,28.13
2019-01-02T11:50:18.447Z,28.13
2019-01-02T11:51:18.640Z,28.13
2019-01-02T11:52:18.420Z,22.50
2019-01-02T11:53:18.406Z,22.50
2019-01-02T11:54:18.602Z,22.50
2019-01-02T11:55:18.636Z,22.50
2019-01-02T11:56:18.391Z,22.50
2019-01-02T11:57:18.387Z,22.50
2019-01-02T11:58:18.408Z,28.13
2019-01-02T11:59:18.387Z,28.13
2019-01-02T12:00:18.362Z,33.75
2019-01-02T12:01:18.599Z,33.75
2019-01-02T12:02:18.354Z,33.75
2019-01-02T12:03:18.368Z,33.75
2019-01-02T12:04:18.348Z,33.75
2019-01-02T12:05:18.557Z,28.13
2019-01-02T12:06:18.371Z,28.13
2019-01-02T12:07:18.344Z,22.50
2019-01-02T12:08:18.316Z,16.88
2019-01-02T12:09:18.317Z,16.88
2019-01-02T12:10:18.319Z,22.50
2019-01-02T12:11:18.513Z,22.50
2019-01-02T12:12:18.304Z,22.50
2019-01-02T12:13:18.290Z,28.13
2019-01-02T12:14:18.501Z,28.13
2019-01-02T12:15:18.289Z,22.50
2019-01-02T12:16:18.296Z,22.50
2019-01-02T12:17:18.279Z,16.88
2019-01-02T12:18:18.272Z,16.88
2019-01-02T12:19:18.260Z,22.50
2019-01-02T12:20:18.258Z,22.50
2019-01-02T12:21:18.254Z,22.50
2019-01-02T12:22:18.495Z,22.50
2019-01-02T12:23:18.232Z,22.50
2019-01-02T12:24:18.252Z,22.50
2019-01-02T12:25:18.248Z,16.88
2019-01-02T12:26:18.226Z,16.88
2019-01-02T12:27:18.441Z,22.50
2019-01-02T12:28:18.218Z,28.13
2019-01-02T12:29:18.190Z,28.13
2019-01-02T12:30:18.200Z,33.75
2019-01-02T12:31:18.391Z,33.75
2019-01-02T12:32:18.414Z,33.75
2019-01-02T12:33:18.182Z,28.13
2019-01-02T12:34:18.164Z,28.13
2019-01-02T12:35:18.364Z,28.13
2019-01-02T12:36:18.172Z,28.13
2019-01-02T12:37:18.353Z,22.50
2019-01-02T12:38:18.136Z,28.13
2019-01-02T12:39:18.158Z,28.13
2019-01-02T12:40:18.129Z,28.13
2019-01-02T12:41:18.121Z,28.13
2019-01-02T12:42:18.121Z,28.13
2019-01-02T12:43:18.324Z,28.13
2019-01-02T12:44:18.117Z,22.50
2019-01-02T12:45:18.107Z,22.50
2019-01-02T12:46:18.107Z,16.88
2019-01-02T12:47:18.095Z,22.50
2019-01-02T12:48:18.088Z,22.50
2019-01-02T12:49:18.072Z,22.50
2019-01-02T12:50:18.077Z,22.50
2019-01-02T12:51:18.273Z,22.50
2019-01-02T12:52:18.063Z,22.50
2019-01-02T12:53:18.049Z,22.50
2019-01-02T12:54:18.061Z,22.50
2019-01-02T12:55:18.035Z,28.13
2019-01-02T12:56:18.240Z,28.13
2019-01-02T12:57:18.042Z,28.13
2019-01-02T12:58:18.026Z,22.50
2019-01-02T12:59:18.034Z,22.50
2019-01-02T13:00:18.215Z,22.50
2019-01-02T13:01:18.005Z,22.50
2019-01-02T13:02:17.994Z,22.50
2019-01-02T13:03:17.998Z,22.50
2019-01-02T13:04:18.205Z,16.88
2019-01-02T13:05:17.995Z,11.25
2019-01-02T13:06:17.980Z,11.25
2019-01-02T13:07:17.981Z,11.25
2019-01-02T13:08:18.194Z,11.25
2019-01-02T13:09:17.966Z,16.88
2019-01-02T13:10:17.968Z,16.88